createdAt,value
2022-07-26T00:01:09.296Z,12.23
2022-07-26T00:02:48.360Z,10.90
2022-07-26T00:04:21.587Z,11.02
2022-07-26T00:05:55.914Z,9.85
2022-07-26T00:07:29.000Z,11.40
2022-07-26T00:09:09.892Z,10.07
2022-07-26T00:10:46.419Z,9.70
2022-07-26T00:12:19.807Z,10.30
2022-07-26T00:13:52.042Z,11.00
2022-07-26T00:15:25.060Z,11.15
2022-07-26T00:18:30.063Z,12.90
2022-07-26T00:20:03.275Z,10.38
2022-07-26T00:21:40.626Z,9.43
2022-07-26T00:23:13.047Z,8.32
2022-07-26T00:24:46.078Z,11.05
2022-07-26T00:27:52.163Z,10.35
2022-07-26T00:29:25.135Z,10.43
2022-07-26T00:30:58.074Z,11.15
2022-07-26T00:32:31.100Z,9.93
2022-07-26T00:34:04.131Z,12.65
2022-07-26T00:37:10.730Z,9.07
2022-07-26T00:38:43.851Z,13.23
2022-07-26T00:41:49.999Z,11.38
2022-07-26T00:43:23.070Z,12.20
2022-07-26T00:46:28.575Z,9.82
2022-07-26T00:48:01.595Z,11.32
2022-07-26T00:49:34.533Z,10.82
2022-07-26T00:51:07.517Z,9.23
2022-07-26T00:54:14.379Z,10.18
2022-07-26T00:55:47.371Z,8.50
2022-07-26T00:57:19.785Z,9.70
2022-07-26T00:58:52.803Z,10.82
2022-07-26T01:00:27.672Z,9.43
2022-07-26T01:02:01.071Z,9.68
2022-07-26T01:03:39.432Z,10.98
2022-07-26T01:05:12.938Z,13.18
2022-07-26T01:08:20.106Z,8.32
2022-07-26T01:09:53.267Z,8.35
2022-07-26T01:12:59.064Z,10.98
2022-07-26T01:14:32.146Z,7.93
2022-07-26T01:17:38.302Z,12.07
2022-07-26T01:19:11.490Z,7.93
2022-07-26T01:20:45.393Z,9.23
2022-07-26T01:22:19.697Z,8.45
2022-07-26T01:23:51.683Z,9.60
2022-07-26T01:25:31.330Z,9.25
2022-07-26T01:27:04.398Z,10.07
2022-07-26T01:30:12.878Z,11.32
2022-07-26T01:31:46.034Z,11.57
2022-07-26T01:34:51.818Z,9.43
2022-07-26T01:36:24.915Z,9.23
2022-07-26T01:39:32.083Z,8.10
2022-07-26T01:41:04.066Z,9.00
2022-07-26T01:42:40.634Z,7.82
2022-07-26T01:44:13.718Z,8.57
2022-07-26T01:47:19.784Z,8.80
2022-07-26T01:48:53.400Z,9.15
2022-07-26T01:50:26.403Z,9.07
2022-07-26T01:51:59.433Z,8.57
2022-07-26T01:53:33.774Z,9.93
2022-07-26T01:55:07.019Z,9.32
2022-07-26T01:56:39.989Z,11.68
2022-07-26T01:58:12.018Z,9.77
2022-07-26T01:59:44.912Z,8.55
2022-07-26T02:01:39.681Z,8.20
2022-07-26T02:03:11.092Z,9.05
2022-07-26T02:05:01.875Z,8.55
2022-07-26T02:06:34.875Z,8.07
2022-07-26T02:08:06.941Z,8.43
2022-07-26T02:09:41.336Z,8.52
2022-07-26T02:11:14.334Z,9.43
2022-07-26T02:12:47.281Z,8.93
2022-07-26T02:14:25.434Z,12.30
2022-07-26T02:15:59.936Z,11.68
2022-07-26T02:17:32.979Z,10.48
2022-07-26T02:19:05.013Z,9.65
2022-07-26T02:20:37.948Z,8.20
2022-07-26T02:22:10.910Z,8.20
2022-07-26T02:23:43.882Z,10.65
2022-07-26T02:25:18.221Z,9.75
2022-07-26T02:26:51.360Z,10.52
2022-07-26T02:29:57.501Z,13.48
2022-07-26T02:31:32.405Z,11.30
2022-07-26T02:33:05.788Z,10.93
2022-07-26T02:34:38.961Z,10.25
2022-07-26T02:37:44.104Z,10.85
2022-07-26T02:39:17.582Z,11.93
2022-07-26T02:40:52.535Z,13.13
2022-07-26T02:42:25.538Z,10.90
2022-07-26T02:43:58.585Z,10.57
2022-07-26T02:47:04.603Z,11.85
2022-07-26T02:50:11.381Z,12.05
2022-07-26T02:53:17.427Z,10.68
2022-07-26T02:56:24.571Z,12.05
2022-07-26T02:57:57.659Z,10.05
2022-07-26T03:01:03.616Z,10.85
2022-07-26T03:02:36.837Z,13.20
2022-07-26T03:04:10.164Z,12.13
2022-07-26T03:05:42.719Z,11.77
2022-07-26T03:07:15.730Z,12.75
2022-07-26T03:08:49.195Z,11.98
2022-07-26T03:10:22.278Z,12.55
2022-07-26T03:15:02.336Z,15.40
2022-07-26T03:16:35.485Z,12.18
2022-07-26T03:19:40.559Z,12.27
2022-07-26T03:21:13.647Z,9.55
2022-07-26T03:24:19.554Z,10.95
2022-07-26T03:25:54.632Z,12.75
2022-07-26T03:27:29.136Z,9.23
2022-07-26T03:29:02.201Z,11.48
2022-07-26T03:30:35.784Z,11.93
2022-07-26T03:32:09.419Z,10.05
2022-07-26T03:33:42.575Z,10.20
2022-07-26T03:36:47.503Z,9.57
2022-07-26T03:39:53.483Z,8.25
2022-07-26T03:43:00.868Z,7.55
2022-07-26T03:44:36.181Z,9.77
2022-07-26T03:46:09.380Z,9.13
2022-07-26T03:47:42.897Z,11.93
2022-07-26T03:49:17.185Z,7.78
2022-07-26T03:50:50.664Z,8.82
2022-07-26T03:53:56.713Z,9.15
2022-07-26T03:57:20.003Z,9.57
2022-07-26T03:58:53.380Z,8.43
2022-07-26T04:00:26.511Z,7.93
2022-07-26T04:03:31.660Z,8.05
2022-07-26T04:05:05.452Z,6.50
2022-07-26T04:06:39.506Z,11.00
2022-07-26T04:08:11.480Z,8.60
2022-07-26T04:09:44.463Z,9.85
2022-07-26T04:11:17.498Z,16.02
2022-07-26T04:14:24.955Z,12.07
2022-07-26T04:15:57.951Z,10.50
2022-07-26T04:17:30.445Z,10.90
2022-07-26T04:19:03.503Z,23.30
2022-07-26T04:22:09.277Z,12.13
2022-07-26T04:23:42.537Z,12.80
2022-07-26T04:25:15.849Z,8.43
2022-07-26T04:26:48.861Z,9.48
2022-07-26T04:28:21.931Z,10.60
2022-07-26T04:29:56.317Z,11.05
2022-07-26T04:31:29.267Z,13.73
2022-07-26T04:33:09.591Z,10.55
2022-07-26T04:34:42.626Z,19.10
2022-07-26T04:36:15.887Z,12.52
2022-07-26T04:37:48.021Z,10.27
2022-07-26T04:39:24.504Z,12.32
2022-07-26T04:40:58.005Z,11.25
2022-07-26T04:42:29.948Z,12.15
2022-07-26T04:44:02.993Z,12.20
2022-07-26T04:45:37.419Z,11.15
2022-07-26T04:47:10.462Z,10.30
2022-07-26T04:48:43.508Z,9.98
2022-07-26T04:51:48.692Z,8.10
2022-07-26T04:53:22.258Z,9.07
2022-07-26T04:54:55.575Z,8.35
2022-07-26T04:58:01.976Z,10.02
2022-07-26T05:01:16.090Z,9.65
2022-07-26T05:02:50.383Z,10.07
2022-07-26T05:04:23.509Z,11.52
2022-07-26T05:05:56.631Z,8.85
2022-07-26T05:09:02.981Z,8.77
2022-07-26T05:10:38.416Z,8.60
2022-07-26T05:12:12.303Z,7.85
2022-07-26T05:13:45.452Z,8.48
2022-07-26T05:16:52.028Z,8.00
2022-07-26T05:18:25.102Z,9.52
2022-07-26T05:20:03.010Z,8.30
2022-07-26T05:21:36.736Z,8.00
2022-07-26T05:23:10.294Z,10.57
2022-07-26T05:24:42.434Z,11.35
2022-07-26T05:26:15.988Z,9.05
2022-07-26T05:27:49.160Z,9.20
2022-07-26T05:30:55.153Z,10.00
2022-07-26T05:32:29.670Z,10.90
2022-07-26T05:34:03.565Z,12.45
2022-07-26T05:35:36.791Z,11.65
2022-07-26T05:37:09.500Z,9.02
2022-07-26T05:38:42.610Z,11.52
2022-07-26T05:41:47.612Z,9.13
2022-07-26T05:43:20.741Z,12.80
2022-07-26T05:44:54.181Z,10.40
2022-07-26T05:46:29.085Z,9.43
2022-07-26T05:49:40.401Z,8.95
2022-07-26T05:51:13.894Z,8.18
2022-07-26T05:54:22.826Z,8.87
2022-07-26T05:55:56.252Z,8.07
2022-07-26T05:59:02.310Z,11.02
2022-07-26T06:02:09.342Z,10.15
2022-07-26T06:03:43.880Z,7.68
2022-07-26T06:05:17.530Z,8.50
2022-07-26T06:06:50.762Z,10.55
2022-07-26T06:08:24.954Z,9.25
2022-07-26T06:09:58.066Z,9.05
2022-07-26T06:13:04.166Z,8.45
2022-07-26T06:16:10.415Z,11.02
2022-07-26T06:17:45.214Z,8.38
2022-07-26T06:19:19.840Z,9.85
2022-07-26T06:20:52.910Z,8.45
2022-07-26T06:23:58.990Z,9.93
2022-07-26T06:27:05.248Z,9.27
2022-07-26T06:28:39.469Z,7.80
2022-07-26T06:30:13.681Z,7.90
2022-07-26T06:31:46.766Z,8.35
2022-07-26T06:34:54.366Z,9.60
2022-07-26T06:36:30.721Z,7.72
2022-07-26T06:38:04.542Z,7.32
2022-07-26T06:39:37.691Z,7.43
2022-07-26T06:42:43.577Z,10.55
2022-07-26T06:45:49.689Z,6.80
2022-07-26T06:47:22.775Z,6.38
2022-07-26T06:50:31.661Z,9.45
2022-07-26T06:52:04.918Z,9.25
2022-07-26T06:53:38.217Z,8.10
2022-07-26T06:55:12.758Z,8.15
2022-07-26T06:56:45.805Z,9.50
2022-07-26T06:58:18.889Z,11.35
2022-07-26T07:01:55.550Z,7.93
2022-07-26T07:03:17.956Z,8.80
2022-07-26T07:06:25.192Z,6.10
2022-07-26T07:07:58.218Z,6.72
2022-07-26T07:09:31.484Z,7.00
2022-07-26T07:12:39.903Z,8.10
2022-07-26T07:14:12.879Z,7.00
2022-07-26T07:15:46.267Z,5.97
2022-07-26T07:17:20.983Z,6.80
2022-07-26T07:18:54.043Z,9.65
2022-07-26T07:22:02.711Z,6.35
2022-07-26T07:23:35.752Z,7.57
2022-07-26T07:25:09.151Z,6.32
2022-07-26T07:26:42.298Z,6.43
2022-07-26T07:29:48.181Z,5.85
2022-07-26T07:33:03.837Z,6.28
2022-07-26T07:34:38.399Z,6.72
2022-07-26T07:36:11.484Z,7.75
2022-07-26T07:39:27.293Z,6.65
2022-07-26T07:41:08.153Z,7.10
2022-07-26T07:42:41.382Z,7.65
2022-07-26T07:45:48.123Z,6.47
2022-07-26T07:47:22.872Z,6.68
2022-07-26T07:48:55.995Z,6.32
2022-07-26T07:52:02.207Z,5.38
2022-07-26T07:53:37.449Z,7.65
2022-07-26T07:55:37.040Z,4.40
2022-07-26T07:57:05.835Z,6.28
2022-07-26T08:00:15.862Z,6.15
2022-07-26T08:01:49.097Z,5.88
2022-07-26T08:03:22.183Z,5.63
2022-07-26T08:06:32.456Z,9.27
2022-07-26T08:08:08.180Z,5.72
2022-07-26T08:09:42.902Z,9.18
2022-07-26T08:11:16.178Z,8.15
2022-07-26T08:14:24.584Z,7.88
2022-07-26T08:17:32.465Z,7.45
2022-07-26T08:19:07.778Z,10.52
2022-07-26T08:20:41.934Z,6.53
2022-07-26T08:23:47.756Z,6.15
2022-07-26T08:25:22.644Z,6.88
2022-07-26T08:26:55.630Z,6.43
2022-07-26T08:30:23.037Z,7.45
2022-07-26T08:31:56.070Z,5.28
2022-07-26T08:35:17.760Z,8.57
2022-07-26T08:37:15.411Z,9.35
2022-07-26T08:38:47.692Z,7.55
2022-07-26T08:40:23.009Z,9.75
2022-07-26T08:41:56.228Z,7.05
2022-07-26T08:43:29.759Z,5.00
2022-07-26T08:45:06.335Z,6.82
2022-07-26T08:46:41.294Z,5.47
2022-07-26T08:48:17.683Z,8.73
2022-07-26T08:49:51.334Z,5.60
2022-07-26T08:53:01.696Z,4.72
2022-07-26T08:54:34.829Z,6.80
2022-07-26T08:56:08.544Z,8.25
2022-07-26T08:57:41.687Z,6.68
2022-07-26T09:01:05.558Z,8.05
2022-07-26T09:02:41.997Z,11.18
2022-07-26T09:04:32.381Z,7.20
2022-07-26T09:06:14.587Z,6.75
2022-07-26T09:07:47.776Z,5.57
2022-07-26T09:09:20.739Z,6.68
2022-07-26T09:10:53.710Z,6.68
2022-07-26T09:12:29.571Z,6.13
2022-07-26T09:14:04.744Z,5.78
2022-07-26T09:15:37.700Z,6.75
2022-07-26T09:17:10.663Z,6.95
2022-07-26T09:18:43.759Z,5.05
2022-07-26T09:21:50.354Z,7.15
2022-07-26T09:23:23.584Z,4.68
2022-07-26T09:24:56.592Z,8.60
2022-07-26T09:26:29.595Z,7.68
2022-07-26T09:29:47.867Z,6.20
2022-07-26T09:32:59.260Z,5.28
2022-07-26T09:34:32.253Z,7.45
2022-07-26T09:37:41.113Z,6.68
2022-07-26T09:39:14.020Z,8.25
2022-07-26T09:42:28.974Z,5.10
2022-07-26T09:44:08.138Z,5.82
2022-07-26T09:45:41.695Z,6.10
2022-07-26T09:47:14.752Z,5.97
2022-07-26T09:50:47.975Z,5.50
2022-07-26T09:52:23.116Z,5.10
2022-07-26T09:53:56.109Z,6.50
2022-07-26T09:55:39.235Z,10.48
2022-07-26T09:57:19.129Z,8.55
2022-07-26T09:58:53.487Z,7.07
2022-07-26T10:00:29.272Z,9.50
2022-07-26T10:02:02.585Z,7.75
2022-07-26T10:03:36.247Z,12.68
2022-07-26T10:05:09.747Z,8.95
2022-07-26T10:06:43.643Z,5.78
2022-07-26T10:08:16.923Z,7.10
2022-07-26T10:09:55.566Z,10.68
2022-07-26T10:11:33.150Z,8.43
2022-07-26T10:13:21.050Z,8.77
2022-07-26T10:18:16.656Z,7.03
2022-07-26T10:19:51.324Z,8.98
2022-07-26T10:21:26.217Z,9.38
2022-07-26T10:22:59.225Z,7.65
2022-07-26T10:26:06.441Z,6.25
2022-07-26T10:27:40.174Z,10.00
2022-07-26T10:29:28.062Z,7.35
2022-07-26T10:31:26.449Z,8.00
2022-07-26T10:33:03.144Z,6.55
2022-07-26T10:34:40.196Z,5.78
2022-07-26T10:36:23.887Z,5.60
2022-07-26T10:38:00.421Z,5.45
2022-07-26T10:39:33.492Z,7.20
2022-07-26T10:41:08.592Z,10.85
2022-07-26T10:42:45.652Z,10.23
2022-07-26T10:44:27.026Z,7.65
2022-07-26T10:46:25.129Z,7.10
2022-07-26T10:48:14.220Z,6.63
2022-07-26T10:49:58.550Z,6.47
2022-07-26T10:51:35.604Z,8.80
2022-07-26T10:53:10.459Z,9.02
2022-07-26T10:55:09.072Z,7.65
2022-07-26T10:56:42.249Z,10.27
2022-07-26T10:58:15.515Z,9.57
2022-07-26T10:59:55.945Z,9.90
2022-07-26T11:01:34.608Z,8.20
2022-07-26T11:03:07.918Z,7.30
2022-07-26T11:04:42.782Z,6.60
2022-07-26T11:06:17.814Z,10.23
2022-07-26T11:08:10.943Z,12.38
2022-07-26T11:09:43.979Z,6.70
2022-07-26T11:11:29.667Z,7.28
2022-07-26T11:13:08.962Z,6.70
2022-07-26T11:14:47.942Z,7.10
2022-07-26T11:16:23.289Z,6.82
2022-07-26T11:18:07.757Z,7.43
2022-07-26T11:19:42.389Z,6.13
2022-07-26T11:21:18.102Z,13.63
2022-07-26T11:22:51.126Z,9.88
2022-07-26T11:26:05.785Z,5.30
2022-07-26T11:27:38.761Z,4.70
2022-07-26T11:30:57.984Z,7.88
2022-07-26T11:32:31.114Z,5.53
2022-07-26T11:34:07.288Z,6.80
2022-07-26T11:35:53.143Z,4.18
2022-07-26T11:37:26.161Z,5.20
2022-07-26T11:38:59.223Z,4.35
2022-07-26T11:40:44.140Z,7.47
2022-07-26T11:42:19.729Z,6.28
2022-07-26T11:43:55.322Z,5.55
2022-07-26T11:45:31.055Z,7.28
2022-07-26T11:47:12.910Z,8.63
2022-07-26T11:48:50.936Z,7.15
2022-07-26T11:50:24.203Z,6.68
2022-07-26T11:52:00.841Z,7.75
2022-07-26T11:53:37.314Z,5.95
2022-07-26T11:55:11.273Z,6.85
2022-07-26T11:56:52.915Z,5.50
2022-07-26T11:58:27.005Z,5.50
2022-07-26T12:00:01.059Z,7.63
2022-07-26T12:01:34.325Z,6.88
2022-07-26T12:04:41.836Z,4.93
2022-07-26T12:06:17.591Z,5.70
2022-07-26T12:08:00.382Z,9.30
2022-07-26T12:09:35.972Z,6.22
2022-07-26T12:11:09.267Z,8.88
2022-07-26T12:12:44.935Z,7.53
2022-07-26T12:14:27.075Z,4.68
2022-07-26T12:16:00.665Z,5.63
2022-07-26T12:17:35.294Z,7.05
2022-07-26T12:19:10.512Z,6.95
2022-07-26T12:21:02.113Z,8.13
2022-07-26T12:22:37.888Z,3.58
2022-07-26T12:24:14.575Z,4.10
2022-07-26T12:25:49.251Z,3.05
2022-07-26T12:27:25.632Z,5.55
2022-07-26T12:29:19.874Z,5.95
2022-07-26T12:30:53.023Z,4.43
2022-07-26T12:32:33.237Z,3.50
2022-07-26T12:34:06.300Z,5.38
2022-07-26T12:35:39.433Z,6.80
2022-07-26T12:37:17.716Z,6.93
2022-07-26T12:38:52.351Z,6.57
2022-07-26T12:40:28.104Z,5.40
2022-07-26T12:42:00.302Z,6.85
2022-07-26T12:43:40.284Z,9.00
2022-07-26T12:45:14.586Z,7.38
2022-07-26T12:46:47.662Z,7.07
2022-07-26T12:48:20.647Z,6.45
2022-07-26T12:51:26.683Z,5.10
2022-07-26T12:53:02.561Z,4.60
2022-07-26T12:54:35.624Z,6.25
2022-07-26T12:56:10.085Z,6.65
2022-07-26T12:57:46.160Z,9.35
2022-07-26T12:59:20.843Z,5.53
2022-07-26T13:00:53.802Z,6.28
2022-07-26T13:02:27.240Z,4.85
2022-07-26T13:04:00.741Z,6.40
2022-07-26T13:05:33.850Z,5.15
2022-07-26T13:08:40.178Z,6.38
2022-07-26T13:12:09.407Z,4.65
2022-07-26T13:13:42.431Z,6.72
2022-07-26T13:16:48.426Z,5.07
2022-07-26T13:18:21.556Z,4.50
2022-07-26T13:21:38.856Z,7.20
2022-07-26T13:24:48.915Z,4.22
2022-07-26T13:26:21.952Z,5.00
2022-07-26T13:27:56.778Z,4.35
2022-07-26T13:29:30.139Z,4.63
2022-07-26T13:31:03.299Z,8.60
2022-07-26T13:32:36.655Z,6.55
2022-07-26T13:34:09.980Z,6.97
2022-07-26T13:35:43.266Z,9.73
2022-07-26T13:37:16.243Z,7.20
2022-07-26T13:38:49.441Z,5.68
2022-07-26T13:40:25.287Z,5.72
2022-07-26T13:42:00.794Z,3.08
2022-07-26T13:43:35.656Z,3.33
2022-07-26T13:45:10.050Z,5.75
2022-07-26T13:46:43.369Z,5.40
2022-07-26T13:48:16.522Z,4.82
2022-07-26T13:49:49.677Z,6.53
2022-07-26T13:51:22.779Z,4.95
2022-07-26T13:52:56.471Z,8.23
2022-07-26T13:54:32.161Z,7.00
2022-07-26T13:56:05.813Z,4.13
2022-07-26T13:57:49.717Z,7.40
2022-07-26T13:59:32.126Z,6.20
2022-07-26T14:01:05.484Z,5.45
2022-07-26T14:02:38.675Z,4.38
2022-07-26T14:04:13.148Z,4.18
2022-07-26T14:05:47.010Z,5.10
2022-07-26T14:07:20.192Z,4.25
2022-07-26T14:08:53.519Z,2.50
2022-07-26T14:10:26.758Z,4.72
2022-07-26T14:12:00.022Z,5.63
2022-07-26T14:13:33.187Z,4.30
2022-07-26T14:15:15.185Z,4.07
2022-07-26T14:16:51.470Z,3.70
2022-07-26T14:18:24.586Z,5.57
2022-07-26T14:19:57.652Z,4.20
2022-07-26T14:21:46.840Z,6.50
2022-07-26T14:23:25.663Z,4.72
2022-07-26T14:24:59.125Z,3.63
2022-07-26T14:26:32.125Z,4.00
2022-07-26T14:28:06.124Z,7.13
2022-07-26T14:29:39.209Z,6.22
2022-07-26T14:32:47.050Z,9.52
2022-07-26T14:34:20.074Z,6.13
2022-07-26T14:37:42.484Z,6.22
2022-07-26T14:39:18.240Z,6.28
2022-07-26T14:40:51.294Z,5.40
2022-07-26T14:42:25.804Z,5.20
2022-07-26T14:44:01.242Z,3.80
2022-07-26T14:45:34.342Z,6.68
2022-07-26T14:47:08.766Z,4.70
2022-07-26T14:48:54.057Z,5.70
2022-07-26T14:50:27.857Z,6.72
2022-07-26T14:52:01.573Z,4.05
2022-07-26T14:53:34.733Z,5.05
2022-07-26T14:55:09.089Z,5.25
2022-07-26T14:56:42.518Z,4.63
2022-07-26T14:58:15.478Z,5.57
2022-07-26T15:02:56.711Z,7.03
2022-07-26T15:04:29.805Z,5.07
2022-07-26T15:06:03.154Z,2.45
2022-07-26T15:07:36.096Z,2.78
2022-07-26T15:09:09.164Z,3.88
2022-07-26T15:10:42.432Z,3.35
2022-07-26T15:12:15.614Z,4.13
2022-07-26T15:13:48.706Z,3.20
2022-07-26T15:15:21.736Z,7.95
2022-07-26T15:18:29.079Z,5.50
2022-07-26T15:20:02.235Z,4.55
2022-07-26T15:21:35.287Z,6.28
2022-07-26T15:24:45.751Z,5.28
2022-07-26T15:26:18.825Z,4.80
2022-07-26T15:29:25.414Z,5.97
2022-07-26T15:30:58.675Z,3.33
2022-07-26T15:32:31.787Z,5.07
2022-07-26T15:34:08.367Z,4.25
2022-07-26T15:35:42.359Z,2.17
2022-07-26T15:37:15.424Z,2.85
2022-07-26T15:40:21.835Z,6.73
2022-07-26T15:41:55.706Z,5.38
2022-07-26T15:43:48.438Z,5.18
2022-07-26T15:45:22.546Z,3.20
2022-07-26T15:46:57.984Z,1.92
2022-07-26T15:50:09.657Z,1.70
2022-07-26T15:51:43.201Z,2.17
2022-07-26T15:53:17.264Z,4.47
2022-07-26T15:54:59.416Z,3.35
2022-07-26T15:56:32.567Z,3.88
2022-07-26T15:58:05.822Z,3.90
2022-07-26T15:59:39.036Z,3.95
2022-07-26T16:01:12.464Z,5.20
2022-07-26T16:02:45.886Z,6.13
2022-07-26T16:04:19.040Z,3.22
2022-07-26T16:05:53.804Z,1.92
2022-07-26T16:07:27.066Z,5.10
2022-07-26T16:09:19.091Z,3.65
2022-07-26T16:10:52.925Z,7.32
2022-07-26T16:12:26.398Z,5.80
2022-07-26T16:14:01.666Z,6.43
2022-07-26T16:15:35.414Z,6.03
2022-07-26T16:17:08.763Z,5.85
2022-07-26T16:18:42.211Z,2.83
2022-07-26T16:20:19.412Z,5.03
2022-07-26T16:21:54.014Z,4.72
2022-07-26T16:23:27.151Z,5.53
2022-07-26T16:25:00.222Z,7.25
2022-07-26T16:26:33.473Z,4.75
2022-07-26T16:28:06.518Z,5.35
2022-07-26T16:31:12.582Z,3.70
2022-07-26T16:32:45.857Z,4.32
2022-07-26T16:34:18.831Z,5.97
2022-07-26T16:35:51.882Z,6.80
2022-07-26T16:37:26.467Z,7.38
2022-07-26T16:38:59.703Z,5.13
2022-07-26T16:40:33.284Z,4.40
2022-07-26T16:42:07.460Z,4.90
2022-07-26T16:43:40.835Z,3.42
2022-07-26T16:45:14.131Z,4.15
2022-07-26T16:46:47.570Z,2.70
2022-07-26T16:48:20.830Z,2.63
2022-07-26T16:49:54.153Z,2.60
2022-07-26T16:51:27.411Z,4.03
2022-07-26T16:53:02.151Z,4.20
2022-07-26T16:54:35.502Z,2.03
2022-07-26T16:56:08.971Z,2.88
2022-07-26T16:57:44.143Z,4.60
2022-07-26T16:59:17.921Z,3.35
2022-07-26T17:00:51.686Z,4.63
2022-07-26T17:02:25.137Z,3.75
2022-07-26T17:03:58.524Z,3.47
2022-07-26T17:05:31.704Z,4.45
2022-07-26T17:07:24.687Z,6.38
2022-07-26T17:08:59.821Z,6.38
2022-07-26T17:10:33.002Z,4.47
2022-07-26T17:12:06.869Z,6.75
2022-07-26T17:13:40.142Z,6.45
2022-07-26T17:15:13.641Z,4.95
2022-07-26T17:16:46.945Z,4.68
2022-07-26T17:18:20.032Z,4.57
2022-07-26T17:21:26.553Z,4.22
2022-07-26T17:23:00.242Z,3.80
2022-07-26T17:24:34.741Z,3.65
2022-07-26T17:26:07.894Z,4.03
2022-07-26T17:27:41.484Z,4.88
2022-07-26T17:29:14.850Z,6.30
2022-07-26T17:30:48.276Z,3.50
2022-07-26T17:32:21.561Z,6.88
2022-07-26T17:33:54.730Z,4.40
2022-07-26T17:35:27.785Z,5.55
2022-07-26T17:38:34.194Z,3.85
2022-07-26T17:40:10.588Z,6.97
2022-07-26T17:41:49.014Z,4.93
2022-07-26T17:43:22.260Z,3.72
2022-07-26T17:44:55.429Z,5.57
2022-07-26T17:46:32.410Z,4.68
2022-07-26T17:48:06.836Z,4.53
2022-07-26T17:49:41.487Z,6.22
2022-07-26T17:51:14.581Z,5.50
2022-07-26T17:54:22.055Z,3.38
2022-07-26T17:55:58.545Z,4.28
2022-07-26T17:57:31.928Z,4.60
2022-07-26T17:59:05.296Z,5.18
2022-07-26T18:00:38.836Z,4.20
2022-07-26T18:02:12.134Z,8.10
2022-07-26T18:03:45.568Z,3.63
2022-07-26T18:05:19.822Z,4.05
2022-07-26T18:06:53.154Z,4.68
2022-07-26T18:08:27.999Z,4.22
2022-07-26T18:10:01.364Z,4.22
2022-07-26T18:11:36.338Z,4.25
2022-07-26T18:13:10.057Z,4.13
2022-07-26T18:14:43.513Z,4.82
2022-07-26T18:16:16.934Z,3.30
2022-07-26T18:17:50.382Z,4.03
2022-07-26T18:19:23.567Z,4.45
2022-07-26T18:20:57.179Z,5.68
2022-07-26T18:22:30.628Z,2.95
2022-07-26T18:24:16.485Z,3.88
2022-07-26T18:25:51.012Z,4.03
2022-07-26T18:27:28.489Z,4.05
2022-07-26T18:29:02.110Z,5.97
2022-07-26T18:30:35.784Z,3.92
2022-07-26T18:32:09.215Z,3.33
2022-07-26T18:33:42.746Z,4.03
2022-07-26T18:35:15.916Z,4.40
2022-07-26T18:38:22.101Z,5.13
2022-07-26T18:41:32.745Z,3.65
2022-07-26T18:43:08.779Z,5.30
2022-07-26T18:44:41.958Z,3.50
2022-07-26T18:47:47.829Z,5.57
2022-07-26T18:49:21.058Z,6.07
2022-07-26T18:50:55.470Z,5.10
2022-07-26T18:52:31.835Z,5.32
2022-07-26T18:54:05.602Z,4.63
2022-07-26T18:55:38.814Z,5.20
2022-07-26T18:57:12.302Z,5.15
2022-07-26T18:58:47.296Z,4.32
2022-07-26T19:00:22.652Z,3.72
2022-07-26T19:01:57.848Z,3.85
2022-07-26T19:03:34.800Z,3.88
2022-07-26T19:05:08.661Z,4.93
2022-07-26T19:06:41.763Z,4.10
2022-07-26T19:09:47.807Z,2.88
2022-07-26T19:12:54.618Z,4.00
2022-07-26T19:14:29.185Z,3.60
2022-07-26T19:16:02.395Z,3.83
2022-07-26T19:17:35.767Z,4.55
2022-07-26T19:19:09.190Z,5.22
2022-07-26T19:20:42.808Z,4.53
2022-07-26T19:22:15.982Z,3.70
2022-07-26T19:25:21.961Z,4.95
2022-07-26T19:30:03.407Z,5.03
2022-07-26T19:31:36.813Z,3.83
2022-07-26T19:33:10.604Z,4.22
2022-07-26T19:34:43.925Z,3.03
2022-07-26T19:36:25.251Z,4.38
2022-07-26T19:38:02.656Z,6.22
2022-07-26T19:39:35.789Z,5.70
2022-07-26T19:42:48.793Z,5.55
2022-07-26T19:44:22.108Z,3.13
2022-07-26T19:45:58.624Z,4.63
2022-07-26T19:47:32.281Z,3.90
2022-07-26T19:49:05.862Z,5.35
2022-07-26T19:50:39.259Z,10.05
2022-07-26T19:52:12.805Z,3.95
2022-07-26T19:53:46.298Z,3.90
2022-07-26T19:55:19.683Z,4.22
2022-07-26T19:56:53.192Z,5.65
2022-07-26T19:58:27.942Z,5.40
2022-07-26T20:00:02.853Z,4.80
2022-07-26T20:01:37.641Z,3.90
2022-07-26T20:03:11.678Z,4.43
2022-07-26T20:04:46.788Z,4.75
2022-07-26T20:07:52.830Z,5.38
2022-07-26T20:11:00.328Z,6.40
2022-07-26T20:12:34.602Z,4.88
2022-07-26T20:14:08.102Z,5.90
2022-07-26T20:15:41.216Z,3.83
2022-07-26T20:18:49.403Z,6.30
2022-07-26T20:20:23.035Z,5.90
2022-07-26T20:21:56.339Z,4.85
2022-07-26T20:23:29.500Z,4.35
2022-07-26T20:26:37.432Z,5.82
2022-07-26T20:28:10.677Z,4.03
2022-07-26T20:29:44.045Z,4.78
2022-07-26T20:31:17.442Z,4.07
2022-07-26T20:32:51.867Z,5.35
2022-07-26T20:34:24.950Z,4.40
2022-07-26T20:35:58.105Z,3.20
2022-07-26T20:39:05.049Z,4.10
2022-07-26T20:40:38.331Z,5.80
2022-07-26T20:42:13.077Z,5.18
2022-07-26T20:43:56.740Z,4.80
2022-07-26T20:45:30.058Z,6.55
2022-07-26T20:48:37.567Z,5.68
2022-07-26T20:50:11.746Z,5.82
2022-07-26T20:51:45.088Z,7.38
2022-07-26T20:53:18.220Z,5.60
2022-07-26T20:56:24.221Z,3.03
2022-07-26T20:59:30.102Z,5.47
2022-07-26T21:01:03.192Z,20.10
2022-07-26T21:04:10.719Z,5.23
2022-07-26T21:05:43.796Z,7.53
2022-07-26T21:07:16.949Z,5.63
2022-07-26T21:10:23.013Z,4.75
2022-07-26T21:13:29.041Z,3.67
2022-07-26T21:16:35.123Z,6.40
2022-07-26T21:18:08.731Z,5.85
2022-07-26T21:19:46.618Z,8.35
2022-07-26T21:21:19.728Z,3.80
2022-07-26T21:24:25.597Z,5.07
2022-07-26T21:26:00.825Z,6.88
2022-07-26T21:27:34.431Z,7.20
2022-07-26T21:29:07.444Z,6.47
2022-07-26T21:30:40.505Z,5.95
2022-07-26T21:32:13.527Z,6.05
2022-07-26T21:33:46.552Z,6.32
2022-07-26T21:35:21.159Z,4.68
2022-07-26T21:36:54.791Z,5.95
2022-07-26T21:38:29.766Z,5.97
2022-07-26T21:40:02.929Z,6.35
2022-07-26T21:43:08.905Z,6.07
2022-07-26T21:44:41.923Z,3.75
2022-07-26T21:46:15.130Z,4.82
2022-07-26T21:47:48.170Z,5.35
2022-07-26T21:49:21.418Z,6.30
2022-07-26T21:50:55.819Z,5.50
2022-07-26T21:52:28.795Z,4.57
2022-07-26T21:54:01.940Z,5.78
2022-07-26T21:57:07.804Z,6.28
2022-07-26T22:00:14.666Z,5.03
2022-07-26T22:01:47.698Z,5.03
2022-07-26T22:03:20.706Z,6.03
2022-07-26T22:04:53.799Z,4.60
2022-07-26T22:09:32.866Z,4.72
2022-07-26T22:11:06.177Z,7.28
2022-07-26T22:12:39.209Z,7.90
2022-07-26T22:14:12.285Z,4.82
2022-07-26T22:15:45.910Z,8.48
2022-07-26T22:17:19.107Z,5.60
2022-07-26T22:20:24.151Z,5.25
2022-07-26T22:21:58.644Z,5.05
2022-07-26T22:23:31.724Z,4.20
2022-07-26T22:25:05.187Z,3.85
2022-07-26T22:26:41.140Z,5.15
2022-07-26T22:28:17.947Z,6.07
2022-07-26T22:29:51.815Z,6.45
2022-07-26T22:31:24.945Z,7.35
2022-07-26T22:34:31.244Z,4.88
2022-07-26T22:36:04.608Z,6.15
2022-07-26T22:37:39.572Z,5.50
2022-07-26T22:39:12.948Z,6.50
2022-07-26T22:40:46.626Z,4.35
2022-07-26T22:42:19.634Z,6.40
2022-07-26T22:43:53.285Z,4.65
2022-07-26T22:45:26.946Z,6.30
2022-07-26T22:46:59.948Z,5.03
2022-07-26T22:48:37.049Z,5.53
2022-07-26T22:50:11.282Z,5.68
2022-07-26T22:51:44.375Z,5.25
2022-07-26T22:56:23.640Z,6.47
2022-07-26T22:59:29.501Z,7.43
2022-07-26T23:01:02.591Z,5.18
2022-07-26T23:04:07.819Z,5.75
2022-07-26T23:05:46.433Z,4.68
2022-07-26T23:07:19.519Z,6.63
2022-07-26T23:08:55.988Z,6.78
2022-07-26T23:10:29.050Z,6.70
2022-07-26T23:12:02.201Z,6.70
2022-07-26T23:15:10.040Z,6.88
2022-07-26T23:16:43.289Z,6.47
2022-07-26T23:18:17.043Z,5.18
2022-07-26T23:19:50.161Z,5.75
2022-07-26T23:22:56.323Z,6.13
2022-07-26T23:26:03.688Z,5.47
2022-07-26T23:27:36.160Z,7.38
2022-07-26T23:29:09.928Z,5.03
2022-07-26T23:30:43.280Z,5.00
2022-07-26T23:32:16.488Z,6.05
2022-07-26T23:33:53.534Z,5.53
2022-07-26T23:35:27.370Z,5.13
2022-07-26T23:38:33.608Z,5.07
2022-07-26T23:40:09.583Z,7.30
2022-07-26T23:41:42.751Z,7.38
2022-07-26T23:44:48.744Z,5.53
2022-07-26T23:46:21.061Z,7.30
2022-07-26T23:47:54.198Z,6.90
2022-07-26T23:49:27.628Z,9.55
2022-07-26T23:51:00.818Z,6.40
2022-07-26T23:52:34.037Z,6.18
2022-07-26T23:55:41.948Z,5.05
2022-07-26T23:57:23.142Z,5.43
2022-07-26T23:58:56.437Z,5.00
